AKDT,Max TemperatureF,Mean TemperatureF,Min TemperatureF,Max Dew PointF,MeanDew PointF,Min DewpointF,Max Humidity, Mean Humidity, Min Humidity, Max Sea Level PressureIn, Mean Sea Level PressureIn, Min Sea Level PressureIn, Max VisibilityMiles, Mean VisibilityMiles, Min VisibilityMiles, Max Wind SpeedMPH, Mean Wind SpeedMPH, Max Gust SpeedMPH,PrecipitationIn, CloudCover, Events, WindDirDegrees
2013-3-1,39,36,32,34,32,30,100,87,70,30.00,29.89,29.74,10,7,1,30,11,38,0.22,7,Rain-Snow,187
2013-3-2,42,35,27,34,28,23,96,80,47,30.22,30.05,30.00,10,10,9,16,2,21,0.01,2,Rain,40
2013-3-3,37,32,26,27,24,21,89,77,60,30.53,30.41,30.23,10,10,10,6,0,,0.00,5,,223
2013-3-4,39,32,24,24,18,14,89,60,35,30.54,30.46,30.35,10,9,2,20,5,26,0.00,0,,24
2013-3-5,39,33,27,17,10,5,66,40,27,30.34,30.13,29.99,10,8,1,25,10,36,0.00,0,,41
2013-3-6,39,32,26,24,18,10,78,62,31,30.01,29.97,29.94,10,10,9,13,3,,0.00,0,,224
2013-3-7,37,29,21,23,19,16,82,66,48,30.04,30.01,30.00,10,10,7,17,5,23,0.00,0,,54
2013-3-8,39,34,28,30,25,20,75,67,58,30.09,30.05,30.03,10,10,10,24,11,34,0.00,4,,194
2013-3-9,39,36,33,34,32,31,96,84,76,30.09,30.01,29.96,10,9,4,17,10,28,0.20,8,Rain-Snow,200
2013-3-10,39,37,34,33,31,29,89,79,70,30.27,30.20,30.07,10,10,6,26,20,33,0.01,7,Snow,202
2013-3-11,37,35,33,32,29,19,96,80,52,30.27,30.19,30.09,10,7,1,12,3,18,0.09,8,Snow,24
2013-3-12,34,28,19,17,3,-5,50,36,26,30.17,30.15,30.11,10,10,8,24,13,36,0.00,5,,28
2013-3-13,25,21,18,-4,-6,-8,36,32,28,30.16,30.11,30.07,10,10,10,18,12,28,0.00,2,,26
2013-3-14,24,18,14,-4,-6,-8,41,34,29,30.24,30.19,30.14,10,10,7,26,20,46,0.00,0,,28
2013-3-15,21,18,15,5,1,-6,62,46,30,30.18,30.12,30.08,10,8,2,22,17,32,0.00,8,Snow,29
2013-3-16,27,22,18,9,2,-1,53,43,37,30.13,30.08,30.01,10,10,10,24,18,32,0.00,6,,40
2013-3-17,28,24,19,1,0,-2,42,37,29,30.17,30.14,30.09,10,10,10,22,14,28,0.00,1,,31
2013-3-18,28,20,12,17,4,-4,75,49,27,30.09,29.99,29.88,10,10,8,15,3,,0.00,3,,202
2013-3-19,30,26,21,16,6,-2,72,45,32,29.87,29.80,29.77,10,10,10,23,8,29,0.00,5,,31
2013-3-20,25,21,17,-3,-8,-10,34,28,22,29.92,29.84,29.81,10,10,10,22,14,31,0.00,0,,24
2013-3-21,26,20,14,-2,-8,-12,47,30,22,30.39,30.18,29.94,10,10,10,24,15,32,0.00,1,,31
2013-3-22,30,19,10,19,7,-3,67,55,40,30.41,30.36,30.29,10,10,9,17,3,,0.00,4,,197
2013-3-23,34,30,26,29,25,18,93,80,66,30.29,30.22,30.17,10,8,2,17,4,21,0.00,8,Snow,64
2013-3-24,37,32,28,33,30,28,100,91,85,30.17,30.07,29.86,10,6,1,4,0,,0.06,8,Snow,115
2013-3-25,42,37,32,36,32,29,100,88,60,29.84,29.71,29.65,10,5,0,34,4,44,0.38,8,Fog-Rain-Snow,205
2013-3-26,39,36,35,31,26,22,76,67,59,30.06,29.87,29.65,10,9,8,39,33,51,0.00,7,Snow,212
2013-3-27,37,34,30,24,23,20,72,62,52,30.21,30.13,30.08,10,10,9,26,21,34,0.00,3,Snow,214
2013-3-28,37,32,28,25,20,14,69,61,50,30.24,30.22,30.18,10,10,10,18,6,,0.00,4,,145
2013-3-29,39,34,30,29,24,20,73,65,57,30.30,30.25,30.20,10,10,9,25,9,34,0.00,7,Snow,197
2013-3-30,39,38,37,36,33,30,89,82,76,30.34,30.27,30.17,10,9,7,24,16,31,0.01,8,Rain,201
2013-3-31,43,38,35,36,34,31,93,84,67,30.35,30.28,30.05,10,10,10,12,6,17,0.00,6,,219